Kalmar Airport

ESMQ · Kalmar, Schweden

METAR-Geschichte ESMQ · Kalmar Airport

Unten siehst du die METARs der letzten paar Tage. Wähle ein Jahr, um ältere METARs ab dem Jahr 2007 zu durchsuchen.

22. Juli 2024

Uhrzeit Code Wetter Temp. Sichtweite Wolkendecke Wind METAR/SPECI
12:50
V
21 °C 10 km+ - 080° 080° 8 kt METAR ESMQ 221050Z 08008KT 040V110 9999 FEW020 21/16 Q1011
12:20
V
21 °C 10 km+ - 100° 100° 9 kt METAR ESMQ 221020Z 10009KT 060V120 9999 FEW017 SCT020 21/16 Q1011
11:50
V
20 °C 10 km+ - 080° 080° 7 kt METAR ESMQ 220950Z 08007KT 050V110 9999 SCT016 20/16 Q1012
11:20
M
21 °C 10 km+ 1.600 ft 070° 070° 8 kt METAR ESMQ 220920Z 07008KT 040V110 9999 BKN016 21/16 Q1011
10:50
M
20 °C 10 km+ 1.400 ft 060° 060° 7 kt METAR ESMQ 220850Z 06007KT 020V090 9999 BKN014 20/16 Q1011
10:20
M
19 °C 10 km+ 1.300 ft 070° 070° 7 kt METAR ESMQ 220820Z 07007KT 030V100 9999 BKN013 19/16 Q1011
09:50
M
19 °C 10 km+ 1.200 ft 080° 080° 8 kt METAR ESMQ 220750Z 08008KT 9999 BKN012 OVC017 19/16 Q1012
09:20
M
19 °C 10 km+ 1.500 ft 070° 070° 8 kt METAR ESMQ 220720Z 07008KT 9999 OVC015 19/16 Q1012
08:50
M
18 °C 10 km+ 1.600 ft 070° 070° 8 kt METAR ESMQ 220650Z 07008KT 9999 FEW010 SCT014 OVC016 18/16 Q1012
08:20
M
19 °C 10 km+ 1.500 ft 080° 080° 7 kt METAR ESMQ 220620Z 08007KT 9999 FEW011 OVC015 19/17 Q1012
07:50
M
19 °C 10 km+ 1.300 ft 080° 080° 8 kt METAR ESMQ 220550Z AUTO 08008KT 9999 FEW011/// OVC013/// 19/17 Q1012
07:20
I
19 °C 10 km+ 900 ft 080° 080° 5 kt METAR ESMQ 220520Z AUTO 08005KT 050V120 9999 BKN009/// OVC014/// 19/17 Q1012
06:50
M
18 °C 10 km+ 1.100 ft 070° 070° 7 kt METAR ESMQ 220450Z AUTO 07007KT 9999 FEW009/// BKN011/// 18/17 Q1012
06:20
M
18 °C 10 km+ 1.100 ft 080° 080° 5 kt METAR ESMQ 220420Z AUTO 08005KT 9999 FEW007/// SCT009/// BKN011/// 18/17 Q1012
05:50
M
18 °C 10 km+ 1.100 ft 080° 080° 4 kt METAR ESMQ 220350Z AUTO 08004KT 050V110 9999 FEW008/// BKN011/// 18/17 Q1012
05:20
M
18 °C 10 km+ 1.100 ft 100° 100° 5 kt METAR ESMQ 220320Z AUTO 10005KT 070V130 9999 FEW008/// SCT009/// BKN011/// 18/17 Q1012
04:50
M
18 °C 10 km+ 1.000 ft 090° 090° 4 kt METAR ESMQ 220250Z AUTO 09004KT 040V120 9999 FEW008/// BKN010/// 18/17 Q1012
04:20
M
17 °C 10 km+ 1.100 ft 080° 080° 4 kt METAR ESMQ 220220Z AUTO 08004KT 9999 FEW009/// BKN011/// 17/17 Q1012
03:50
M
18 °C 10 km+ 1.000 ft 090° 090° 3 kt METAR ESMQ 220150Z AUTO 09003KT 9999 FEW006/// SCT008/// BKN010/// 18/17 Q1012
03:20
I
18 °C 10 km+ 900 ft 090° 090° 4 kt METAR ESMQ 220120Z AUTO 09004KT 9999 FEW006/// SCT008/// BKN009/// 18/17 Q1012
02:50
M
18 °C 10 km+ 1.000 ft 090° 090° 3 kt METAR ESMQ 220050Z AUTO 09003KT 9999 FEW007/// SCT009/// BKN010/// 18/17 Q1012
02:20
I
18 °C 10 km+ 600 ft 090° 090° 3 kt METAR ESMQ 220020Z AUTO 09003KT 9999 BKN006/// 18/17 Q1012
01:50
I
18 °C 10 km+ 600 ft 080° 080° 3 kt METAR ESMQ 212350Z AUTO 08003KT 9999 BKN006/// BKN009/// 18/17 Q1012
01:20
I
18 °C 10 km+ 800 ft 090° 090° 4 kt METAR ESMQ 212320Z AUTO 09004KT 9999 FEW006/// BKN008/// 18/17 Q1012
00:50
I
17 °C 10 km+ 500 ft Var Var 3 kt METAR ESMQ 212250Z AUTO VRB03KT 9999 BKN005/// 17/17 Q1012
00:20
I
17 °C 10 km+ 500 ft 090° 090° 3 kt METAR ESMQ 212220Z AUTO 09003KT 9999 BKN005/// 17/17 Q1012

21. Juli 2024

Uhrzeit Code Wetter Temp. Sichtweite Wolkendecke Wind METAR/SPECI
23:50
I
16 °C 6 km 500 ft 050° 050° 3 kt METAR ESMQ 212150Z AUTO 05003KT 6000 BKN005/// 16/16 Q1012
23:20
V
17 °C 10 km+ - 070° 070° 3 kt METAR ESMQ 212120Z AUTO 07003KT 9999 FEW005/// 17/16 Q1012
22:50
V
17 °C 10 km+ - 070° 070° 4 kt METAR ESMQ 212050Z AUTO 07004KT 9999 FEW006/// 17/17 Q1012
22:20
V
18 °C 10 km+ - 070° 070° 4 kt METAR ESMQ 212020Z AUTO 07004KT 9999 NCD 18/17 Q1012
21:50
V
18 °C 10 km+ - 070° 070° 5 kt METAR ESMQ 211950Z AUTO 07005KT 9999 NCD 18/17 Q1012
21:20
V
19 °C 10 km+ - 080° 080° 5 kt METAR ESMQ 211920Z AUTO 08005KT 9999 NCD 19/17 Q1012
20:50
V
20 °C 10 km+ - 080° 080° 5 kt METAR ESMQ 211850Z AUTO 08005KT 9999 NCD 20/16 Q1012
20:20
V
21 °C 10 km+ - 080° 080° 5 kt METAR ESMQ 211820Z AUTO 08005KT 9999 NCD 21/15 Q1012
19:50
V
22 °C 10 km+ - 090° 090° 5 kt METAR ESMQ 211750Z AUTO 09005KT 9999 NCD 22/16 Q1011
19:20
V
22 °C 10 km+ - 100° 100° 5 kt METAR ESMQ 211720Z AUTO 10005KT 070V140 9999 NCD 22/16 Q1011
18:50
V
23 °C 10 km+ - 110° 110° 6 kt METAR ESMQ 211650Z AUTO 11006KT 080V140 9999 NCD 23/15 Q1011
18:20
V
23 °C 10 km+ - 150° 150° 7 kt METAR ESMQ 211620Z AUTO 15007KT 9999 NCD 23/15 Q1011
17:50
V
24 °C 10 km+ - 150° 150° 7 kt METAR ESMQ 211550Z AUTO 15007KT 9999 NCD 24/14 Q1011
17:20
V
24 °C 10 km+ - 150° 150° 7 kt METAR ESMQ 211520Z AUTO 15007KT 9999 NCD 24/14 Q1011
16:50
V
24 °C 10 km+ - 160° 160° 7 kt METAR ESMQ 211450Z AUTO 16007KT 9999 NCD 24/14 Q1011
16:20
V
24 °C 10 km+ - 170° 170° 8 kt METAR ESMQ 211420Z AUTO 17008KT 9999 NCD 24/15 Q1011
15:50
V
24 °C 10 km+ - 180° 180° 8 kt METAR ESMQ 211350Z AUTO 18008KT 9999 NCD 24/14 Q1011
15:20
V
24 °C 10 km+ - 150° 150° 8 kt METAR ESMQ 211320Z AUTO 15008KT 9999 NCD 24/14 Q1011
14:50
V
24 °C 10 km+ - 170° 170° 8 kt METAR ESMQ 211250Z AUTO 17008KT 9999 NCD 24/15 Q1011
14:20
V
24 °C 10 km+ - 180° 180° 7 kt METAR ESMQ 211220Z AUTO 18007KT 9999 NCD 24/15 Q1011
13:50
V
25 °C 10 km+ - 190° 190° 7 kt METAR ESMQ 211150Z 19007KT CAVOK 25/14 Q1011
13:20
V
24 °C 10 km+ - 160° 160° 7 kt METAR ESMQ 211120Z 16007KT CAVOK 24/14 Q1011
12:50
V
25 °C 10 km+ - 150° 150° 8 kt METAR ESMQ 211050Z 15008KT CAVOK 25/14 Q1011
12:20
V
24 °C 10 km+ - 150° 150° 7 kt METAR ESMQ 211020Z 15007KT CAVOK 24/14 Q1012
11:50
V
25 °C 10 km+ - 140° 140° 6 kt METAR ESMQ 210950Z 14006KT 110V170 CAVOK 25/14 Q1011
11:20
V
24 °C 10 km+ - 140° 140° 6 kt METAR ESMQ 210920Z 14006KT 100V200 CAVOK 24/15 Q1011
10:50
V
24 °C 10 km+ - 160° 160° 5 kt METAR ESMQ 210850Z 16005KT 110V200 CAVOK 24/15 Q1011
10:20
V
24 °C 10 km+ - 150° 150° 3 kt METAR ESMQ 210820Z 15003KT 090V200 CAVOK 24/15 Q1011
09:50
V
24 °C 10 km+ - 140° 140° 3 kt METAR ESMQ 210750Z AUTO 14003KT 110V170 9999 NCD 24/15 Q1011
09:20
V
23 °C 10 km+ - Var Var 2 kt METAR ESMQ 210720Z AUTO VRB02KT 9999 NCD 23/16 Q1011
08:50
V
22 °C 10 km+ - 360° 360° 0 kt METAR ESMQ 210650Z AUTO 00000KT 9999 NCD 22/16 Q1012
08:20
V
21 °C 10 km+ - 360° 360° 0 kt METAR ESMQ 210620Z AUTO 00000KT 9999 NCD 21/17 Q1012
07:50
V
20 °C 10 km+ - Var Var 1 kt METAR ESMQ 210550Z AUTO VRB01KT 9999 NCD 20/17 Q1011
07:20
V
18 °C 10 km+ - 360° 360° 0 kt METAR ESMQ 210520Z AUTO 00000KT 9999 NCD 18/17 Q1012
06:50
V
17 °C 10 km+ - 360° 360° 0 kt METAR ESMQ 210450Z AUTO 00000KT 9999 NCD 17/15 Q1012
06:20
V
15 °C 10 km+ - 360° 360° 0 kt METAR ESMQ 210420Z AUTO 00000KT 9999 NCD 15/14 Q1012
05:50
V
13 °C 10 km+ - 360° 360° 0 kt METAR ESMQ 210350Z AUTO 00000KT 9999 NCD 13/13 Q1012
05:20
V
13 °C 10 km+ - 360° 360° 0 kt METAR ESMQ 210320Z AUTO 00000KT 9999 NCD 13/13 Q1011
04:50
V
12 °C 10 km+ - 280° 280° 1 kt METAR ESMQ 210250Z AUTO 28001KT 9999 NCD 12/12 Q1012
04:20
V
12 °C 10 km+ - 360° 360° 0 kt METAR ESMQ 210220Z AUTO 00000KT 9999 NCD 12/12 Q1012
03:50
L
12 °C 250 m - 150° 150° 2 kt METAR ESMQ 210150Z AUTO 15002KT 0250 R16/0750N R34/P1500N NCD 12/12 Q1012
03:20
V
13 °C 10 km+ - 060° 060° 2 kt METAR ESMQ 210120Z AUTO 06002KT 9999 NCD 13/13 Q1012
02:50
V
13 °C 10 km+ - 360° 360° 0 kt METAR ESMQ 210050Z AUTO 00000KT 9999 NCD 13/13 Q1012
02:20
V
13 °C 10 km+ - 270° 270° 2 kt METAR ESMQ 210020Z AUTO 27002KT 9999 NCD 13/13 Q1012
01:50
V
13 °C 10 km+ - 310° 310° 2 kt METAR ESMQ 202350Z AUTO 31002KT 9999 NCD 13/13 Q1012
01:20
V
15 °C 10 km+ - 360° 360° 0 kt METAR ESMQ 202320Z AUTO 00000KT 9999 NCD 15/14 Q1012
00:50
V
15 °C 10 km+ - 360° 360° 0 kt METAR ESMQ 202250Z AUTO 00000KT 9999 NCD 15/15 Q1012
00:20
V
15 °C 10 km+ - 360° 360° 0 kt METAR ESMQ 202220Z AUTO 00000KT 9999 NCD 15/14 Q1012

20. Juli 2024

Uhrzeit Code Wetter Temp. Sichtweite Wolkendecke Wind METAR/SPECI
23:50
V
15 °C 10 km+ - 360° 360° 0 kt METAR ESMQ 202150Z AUTO 00000KT 9999 NCD 15/14 Q1012
23:20
V
17 °C 10 km+ - 190° 190° 2 kt METAR ESMQ 202120Z AUTO 19002KT 9999 NCD 17/15 Q1012
22:50
V
16 °C 10 km+ - 180° 180° 3 kt METAR ESMQ 202050Z AUTO 18003KT 9999 FEW073/// 16/15 Q1012
22:20
V
18 °C 10 km+ 7.000 ft 190° 190° 3 kt METAR ESMQ 202020Z AUTO 19003KT 9999 BKN070/// 18/15 Q1012
21:50
V
19 °C 10 km+ - 190° 190° 3 kt METAR ESMQ 201950Z AUTO 19003KT 9999 NCD 19/16 Q1012
21:20
V
19 °C 10 km+ - 150° 150° 4 kt METAR ESMQ 201920Z AUTO 15004KT 9999 NCD 19/16 Q1012
20:50
V
20 °C 10 km+ - 160° 160° 4 kt METAR ESMQ 201850Z AUTO 16004KT 9999 FEW080/// 20/16 Q1012
20:20
V
22 °C 10 km+ - 170° 170° 6 kt METAR ESMQ 201820Z AUTO 17006KT 9999 SCT080/// 22/17 Q1012
19:50
V
22 °C 10 km+ - 170° 170° 7 kt METAR ESMQ 201750Z AUTO 17007KT 9999 NCD 22/16 Q1012
19:20
V
23 °C 10 km+ - 170° 170° 6 kt METAR ESMQ 201720Z AUTO 17006KT 9999 NCD 23/17 Q1012
18:50
V
22 °C 10 km+ - 170° 170° 9 kt METAR ESMQ 201650Z AUTO 17009KT 9999 NCD 22/17 Q1012
18:20
V
23 °C 10 km+ - 170° 170° 9 kt METAR ESMQ 201620Z AUTO 17009KT 9999 NCD 23/17 Q1012
17:50
V
23 °C 10 km+ - 170° 170° 9 kt METAR ESMQ 201550Z AUTO 17009KT 9999 NCD 23/17 Q1012
17:20
V
23 °C 10 km+ - 150° 150° 9 kt METAR ESMQ 201520Z AUTO 15009KT 9999 NCD 23/18 Q1012
16:50
V
23 °C 10 km+ - 150° 150° 10 kt METAR ESMQ 201450Z AUTO 15010KT 9999 NCD 23/17 Q1013
16:20
V
25 °C 10 km+ - 160° 160° 9 kt METAR ESMQ 201420Z AUTO 16009KT 9999 NCD 25/17 Q1013
15:50
V
25 °C 10 km+ - 150° 150° 8 kt METAR ESMQ 201350Z AUTO 15008KT 9999 NCD 25/16 Q1013
15:20
V
25 °C 10 km+ - 150° 150° 7 kt METAR ESMQ 201320Z AUTO 15007KT 9999 NCD 25/17 Q1013
14:50
V
25 °C 10 km+ - 170° 170° 7 kt METAR ESMQ 201250Z AUTO 17007KT 9999 FEW048/// 25/17 Q1013
14:20
V
25 °C 10 km+ - 140° 140° 7 kt METAR ESMQ 201220Z AUTO 14007KT 9999 FEW040/// 25/17 Q1013
13:50
V
25 °C 10 km+ - 170° 170° 7 kt METAR ESMQ 201150Z AUTO 17007KT 9999 FEW039/// 25/17 Q1013
13:20
V
25 °C 10 km+ - 140° 140° 6 kt METAR ESMQ 201120Z AUTO 14006KT 110V190 9999 FEW043/// 25/17 Q1013
12:50
V
24 °C 10 km+ - 160° 160° 6 kt METAR ESMQ 201050Z AUTO 16006KT 9999 FEW043/// SCT076/// 24/17 Q1014
12:20
V
24 °C 10 km+ 3.700 ft 110° 110° 5 kt METAR ESMQ 201020Z AUTO 11005KT 080V160 9999 BKN037/// 24/17 Q1014
11:50
V
24 °C 10 km+ - Var Var 3 kt METAR ESMQ 200950Z AUTO VRB03KT 9999 NCD 24/17 Q1014
11:20
V
24 °C 10 km+ - 100° 100° 3 kt METAR ESMQ 200920Z AUTO 10003KT 020V170 9999 NCD 24/16 Q1014
10:50
V
23 °C 10 km+ - Var Var 3 kt METAR ESMQ 200850Z AUTO VRB03KT 9999 NCD 23/16 Q1014
10:20
V
23 °C 10 km+ - 060° 060° 3 kt METAR ESMQ 200820Z AUTO 06003KT 340V100 9999 NCD 23/16 Q1015
09:50
V
22 °C 10 km+ - Var Var 3 kt METAR ESMQ 200750Z AUTO VRB03KT 9999 NCD 22/16 Q1015
09:20
V
21 °C 10 km+ - 020° 020° 3 kt METAR ESMQ 200720Z AUTO 02003KT 330V060 9999 NCD 21/16 Q1015
08:50
V
21 °C 10 km+ - 010° 010° 4 kt METAR ESMQ 200650Z AUTO 01004KT 330V060 9999 NCD 21/16 Q1015
08:20
V
19 °C 10 km+ - 340° 340° 4 kt METAR ESMQ 200620Z AUTO 34004KT 9999 NCD 19/15 Q1015
07:50
V
18 °C 10 km+ - 350° 350° 4 kt METAR ESMQ 200550Z AUTO 35004KT 320V020 9999 NCD 18/15 Q1015
Eine Änderung melden